sensor_id;sensor_type;location;lat;lon;timestamp;temperature;humidity
20315;DHT22;10315;50.958;13.080;2023-10-09T00:01:53;9.40;99.90
20315;DHT22;10315;50.958;13.080;2023-10-09T00:11:55;9.20;99.90
20315;DHT22;10315;50.958;13.080;2023-10-09T00:21:59;9.50;99.90
20315;DHT22;10315;50.958;13.080;2023-10-09T00:32:05;9.70;99.90
20315;DHT22;10315;50.958;13.080;2023-10-09T00:42:15;9.90;99.90
20315;DHT22;10315;50.958;13.080;2023-10-09T00:52:28;10.00;99.90
20315;DHT22;10315;50.958;13.080;2023-10-09T01:02:41;10.00;99.90
20315;DHT22;10315;50.958;13.080;2023-10-09T01:12:44;10.00;99.90
20315;DHT22;10315;50.958;13.080;2023-10-09T01:23:00;10.10;99.90
20315;DHT22;10315;50.958;13.080;2023-10-09T01:33:03;10.30;99.90
20315;DHT22;10315;50.958;13.080;2023-10-09T01:43:15;10.40;99.90
20315;DHT22;10315;50.958;13.080;2023-10-09T01:53:19;10.40;99.90
20315;DHT22;10315;50.958;13.080;2023-10-09T02:03:30;10.50;99.90
20315;DHT22;10315;50.958;13.080;2023-10-09T02:13:31;10.70;99.90
20315;DHT22;10315;50.958;13.080;2023-10-09T02:23:36;10.60;99.90
20315;DHT22;10315;50.958;13.080;2023-10-09T02:33:41;10.80;99.90
20315;DHT22;10315;50.958;13.080;2023-10-09T02:43:46;10.80;99.90
20315;DHT22;10315;50.958;13.080;2023-10-09T02:53:48;10.90;99.90
20315;DHT22;10315;50.958;13.080;2023-10-09T03:03:53;11.20;99.90
20315;DHT22;10315;50.958;13.080;2023-10-09T03:13:59;11.30;99.90
20315;DHT22;10315;50.958;13.080;2023-10-09T03:24:05;11.40;99.90
20315;DHT22;10315;50.958;13.080;2023-10-09T03:34:08;11.30;99.90
20315;DHT22;10315;50.958;13.080;2023-10-09T03:44:12;11.40;99.90
20315;DHT22;10315;50.958;13.080;2023-10-09T03:54:14;11.50;99.90
20315;DHT22;10315;50.958;13.080;2023-10-09T04:04:17;11.70;99.90
20315;DHT22;10315;50.958;13.080;2023-10-09T04:14:23;11.80;99.90
20315;DHT22;10315;50.958;13.080;2023-10-09T04:24:28;12.00;99.90
20315;DHT22;10315;50.958;13.080;2023-10-09T04:34:36;12.40;99.90
20315;DHT22;10315;50.958;13.080;2023-10-09T04:44:39;12.90;99.90
20315;DHT22;10315;50.958;13.080;2023-10-09T04:55:00;13.10;99.90
20315;DHT22;10315;50.958;13.080;2023-10-09T05:05:18;13.20;99.90
20315;DHT22;10315;50.958;13.080;2023-10-09T05:15:43;13.10;99.90
20315;DHT22;10315;50.958;13.080;2023-10-09T05:25:47;13.00;99.90
20315;DHT22;10315;50.958;13.080;2023-10-09T05:35:56;12.90;99.90
20315;DHT22;10315;50.958;13.080;2023-10-09T05:46:19;12.90;99.90
20315;DHT22;10315;50.958;13.080;2023-10-09T05:56:35;12.90;99.90
20315;DHT22;10315;50.958;13.080;2023-10-09T06:06:56;13.00;99.90
20315;DHT22;10315;50.958;13.080;2023-10-09T06:17:01;13.00;99.90
20315;DHT22;10315;50.958;13.080;2023-10-09T06:27:19;13.10;99.90
20315;DHT22;10315;50.958;13.080;2023-10-09T06:37:25;13.10;99.90
20315;DHT22;10315;50.958;13.080;2023-10-09T06:47:40;13.10;99.90
20315;DHT22;10315;50.958;13.080;2023-10-09T06:57:42;13.10;99.90
20315;DHT22;10315;50.958;13.080;2023-10-09T07:07:50;13.10;99.90
20315;DHT22;10315;50.958;13.080;2023-10-09T07:17:55;13.00;99.90
20315;DHT22;10315;50.958;13.080;2023-10-09T07:28:18;13.00;99.90
20315;DHT22;10315;50.958;13.080;2023-10-09T07:38:29;13.10;99.90
20315;DHT22;10315;50.958;13.080;2023-10-09T07:48:37;13.20;99.90
20315;DHT22;10315;50.958;13.080;2023-10-09T07:58:52;13.30;99.90
20315;DHT22;10315;50.958;13.080;2023-10-09T08:08:55;13.20;99.90
20315;DHT22;10315;50.958;13.080;2023-10-09T08:19:11;13.20;99.90
20315;DHT22;10315;50.958;13.080;2023-10-09T08:29:34;13.20;99.90
20315;DHT22;10315;50.958;13.080;2023-10-09T08:39:35;13.20;99.90
20315;DHT22;10315;50.958;13.080;2023-10-09T08:49:38;13.10;99.90
20315;DHT22;10315;50.958;13.080;2023-10-09T08:59:41;13.20;99.90
20315;DHT22;10315;50.958;13.080;2023-10-09T09:09:54;13.20;99.90
20315;DHT22;10315;50.958;13.080;2023-10-09T09:19:57;13.20;99.90
20315;DHT22;10315;50.958;13.080;2023-10-09T09:30:00;13.20;99.90
20315;DHT22;10315;50.958;13.080;2023-10-09T09:40:10;13.30;99.90
20315;DHT22;10315;50.958;13.080;2023-10-09T09:50:17;13.20;99.90
20315;DHT22;10315;50.958;13.080;2023-10-09T10:00:28;13.20;99.90
20315;DHT22;10315;50.958;13.080;2023-10-09T10:10:36;13.30;99.90
20315;DHT22;10315;50.958;13.080;2023-10-09T10:21:10;13.40;99.90
20315;DHT22;10315;50.958;13.080;2023-10-09T10:31:16;13.40;99.90
20315;DHT22;10315;50.958;13.080;2023-10-09T10:41:18;13.40;99.90
20315;DHT22;10315;50.958;13.080;2023-10-09T10:51:24;13.60;99.90
20315;DHT22;10315;50.958;13.080;2023-10-09T11:01:35;13.60;99.90
20315;DHT22;10315;50.958;13.080;2023-10-09T11:11:55;13.70;99.90
20315;DHT22;10315;50.958;13.080;2023-10-09T11:22:12;13.80;99.90
20315;DHT22;10315;50.958;13.080;2023-10-09T11:32:31;13.80;99.90
20315;DHT22;10315;50.958;13.080;2023-10-09T11:42:34;13.80;99.90
20315;DHT22;10315;50.958;13.080;2023-10-09T11:52:58;13.70;99.90
20315;DHT22;10315;50.958;13.080;2023-10-09T12:03:20;13.80;99.90
20315;DHT22;10315;50.958;13.080;2023-10-09T12:13:25;13.80;99.90
20315;DHT22;10315;50.958;13.080;2023-10-09T12:23:27;13.80;99.90
20315;DHT22;10315;50.958;13.080;2023-10-09T12:33:30;13.90;99.90
20315;DHT22;10315;50.958;13.080;2023-10-09T12:43:31;13.80;99.90
20315;DHT22;10315;50.958;13.080;2023-10-09T12:53:39;13.80;99.90
20315;DHT22;10315;50.958;13.080;2023-10-09T13:03:41;13.80;99.90
20315;DHT22;10315;50.958;13.080;2023-10-09T13:13:45;13.80;99.90
20315;DHT22;10315;50.958;13.080;2023-10-09T13:23:51;13.80;99.90
20315;DHT22;10315;50.958;13.080;2023-10-09T13:33:56;13.80;99.90
20315;DHT22;10315;50.958;13.080;2023-10-09T13:43:59;13.80;99.90
20315;DHT22;10315;50.958;13.080;2023-10-09T13:54:04;13.80;99.90
20315;DHT22;10315;50.958;13.080;2023-10-09T14:04:07;13.90;99.90
20315;DHT22;10315;50.958;13.080;2023-10-09T14:14:10;13.80;99.90
20315;DHT22;10315;50.958;13.080;2023-10-09T14:24:12;13.80;99.90
20315;DHT22;10315;50.958;13.080;2023-10-09T14:34:17;13.80;99.90
20315;DHT22;10315;50.958;13.080;2023-10-09T14:44:21;13.80;99.90
20315;DHT22;10315;50.958;13.080;2023-10-09T14:54:26;13.80;99.90
20315;DHT22;10315;50.958;13.080;2023-10-09T15:04:28;13.80;99.90
20315;DHT22;10315;50.958;13.080;2023-10-09T15:14:31;13.80;99.90
20315;DHT22;10315;50.958;13.080;2023-10-09T15:24:33;13.80;99.90
20315;DHT22;10315;50.958;13.080;2023-10-09T15:34:36;13.90;99.90
20315;DHT22;10315;50.958;13.080;2023-10-09T15:44:37;13.90;99.90
20315;DHT22;10315;50.958;13.080;2023-10-09T15:54:40;13.90;99.90
20315;DHT22;10315;50.958;13.080;2023-10-09T16:04:43;13.90;99.90
20315;DHT22;10315;50.958;13.080;2023-10-09T16:14:46;14.00;99.90
20315;DHT22;10315;50.958;13.080;2023-10-09T16:24:48;13.90;99.90
20315;DHT22;10315;50.958;13.080;2023-10-09T16:34:52;13.90;99.90
20315;DHT22;10315;50.958;13.080;2023-10-09T16:44:53;13.80;99.90
20315;DHT22;10315;50.958;13.080;2023-10-09T16:54:57;13.90;99.90
20315;DHT22;10315;50.958;13.080;2023-10-09T17:05:00;13.80;99.90
20315;DHT22;10315;50.958;13.080;2023-10-09T17:15:05;13.90;99.90
20315;DHT22;10315;50.958;13.080;2023-10-09T17:25:07;14.00;99.90
20315;DHT22;10315;50.958;13.080;2023-10-09T17:35:14;14.10;99.90
20315;DHT22;10315;50.958;13.080;2023-10-09T17:45:17;14.10;99.90
20315;DHT22;10315;50.958;13.080;2023-10-09T17:55:23;14.10;99.90
20315;DHT22;10315;50.958;13.080;2023-10-09T18:05:26;14.10;99.90
20315;DHT22;10315;50.958;13.080;2023-10-09T18:15:31;14.00;99.90
20315;DHT22;10315;50.958;13.080;2023-10-09T18:25:34;14.10;99.90
20315;DHT22;10315;50.958;13.080;2023-10-09T18:35:37;14.10;99.90
20315;DHT22;10315;50.958;13.080;2023-10-09T18:45:39;14.10;99.90
20315;DHT22;10315;50.958;13.080;2023-10-09T18:55:42;14.20;99.90
20315;DHT22;10315;50.958;13.080;2023-10-09T19:05:45;14.20;99.90
20315;DHT22;10315;50.958;13.080;2023-10-09T19:15:49;14.20;99.90
20315;DHT22;10315;50.958;13.080;2023-10-09T19:25:51;14.30;99.90
20315;DHT22;10315;50.958;13.080;2023-10-09T19:36:00;14.20;99.90
20315;DHT22;10315;50.958;13.080;2023-10-09T19:46:05;14.20;99.90
20315;DHT22;10315;50.958;13.080;2023-10-09T19:56:08;14.30;99.90
20315;DHT22;10315;50.958;13.080;2023-10-09T20:06:11;14.30;99.90
20315;DHT22;10315;50.958;13.080;2023-10-09T20:16:16;14.30;99.90
20315;DHT22;10315;50.958;13.080;2023-10-09T20:26:19;14.40;99.90
20315;DHT22;10315;50.958;13.080;2023-10-09T20:36:22;14.50;99.90
20315;DHT22;10315;50.958;13.080;2023-10-09T20:46:28;14.50;99.90
20315;DHT22;10315;50.958;13.080;2023-10-09T20:56:31;14.50;99.90
20315;DHT22;10315;50.958;13.080;2023-10-09T21:06:33;14.50;99.90
20315;DHT22;10315;50.958;13.080;2023-10-09T21:16:36;14.50;99.90
20315;DHT22;10315;50.958;13.080;2023-10-09T21:26:37;14.50;99.90
20315;DHT22;10315;50.958;13.080;2023-10-09T21:36:40;14.60;99.90
20315;DHT22;10315;50.958;13.080;2023-10-09T21:46:42;14.60;99.90
20315;DHT22;10315;50.958;13.080;2023-10-09T21:56:45;14.60;99.90
20315;DHT22;10315;50.958;13.080;2023-10-09T22:06:46;14.60;99.90
20315;DHT22;10315;50.958;13.080;2023-10-09T22:16:49;14.60;99.90
20315;DHT22;10315;50.958;13.080;2023-10-09T22:26:51;14.60;99.90
20315;DHT22;10315;50.958;13.080;2023-10-09T22:36:54;14.70;99.90
20315;DHT22;10315;50.958;13.080;2023-10-09T22:46:56;14.60;99.90
20315;DHT22;10315;50.958;13.080;2023-10-09T22:56:59;14.60;99.90
20315;DHT22;10315;50.958;13.080;2023-10-09T23:07:01;14.60;99.90
20315;DHT22;10315;50.958;13.080;2023-10-09T23:17:14;14.60;99.90
20315;DHT22;10315;50.958;13.080;2023-10-09T23:27:20;14.50;99.90
20315;DHT22;10315;50.958;13.080;2023-10-09T23:37:50;14.50;99.90
20315;DHT22;10315;50.958;13.080;2023-10-09T23:48:10;14.50;99.90
20315;DHT22;10315;50.958;13.080;2023-10-09T23:58:17;14.50;99.90
